• Join FlightAware (Why Join?)
  • Login
  • US Flag 
09:52PM EDT


 

Airport Tracker/Info


-or-


 

Live Flight TrackerFlight Track Log ✈ VH-SRO ✈ 23-Jun-2013 ✈ YBRK / ROK - YBAF

Flight Track Log - Related Links

Times and Time Zones

All times are in EDT time to prevent confusion due to time zone crossing. See the VH-SRO flight status page for this flight to view local times or setup timezone preferences in your user account.

Time Position Orientation Groundspeed Altitude Reporting Facility
EDT Latitude Longitude Course Direction KTS MPH feet Rate Location/Type
12:50AM -23.3930 150.4806 127° Southeast 89 102 800  Level Aus ATC (RADAR)
12:51AM -23.4074 150.5018 127° Southeast 87 100 1,400 660 Climbing Aus ATC (RADAR)
12:53AM -23.4253 150.5335 122° Southeast 91 105 2,400 660 Climbing Aus ATC (RADAR)
12:54AM -23.4386 150.5529 127° Southeast 87 100 3,000 720 Climbing Aus ATC (RADAR)
12:54AM -23.4533 150.5720 130° Southeast 89 102 3,800 660 Climbing Aus ATC (RADAR)
12:55AM -23.4631 150.5869 126° Southeast 91 105 4,100 600 Climbing Aus ATC (RADAR)
12:56AM -23.4780 150.6114 124° Southeast 96 110 4,800 600 Climbing Aus ATC (RADAR)
12:57AM -23.4871 150.6249 126° Southeast 96 110 5,100 240 Climbing Aus ATC (RADAR)
12:57AM -23.5005 150.6444 127° Southeast 120 138 5,100 360 Level Aus ATC (RADAR)
12:58AM -23.5137 150.6659 124° Southeast 123 142 5,600 780 Climbing Aus ATC (RADAR)
12:59AM -23.5281 150.6875 126° Southeast 107 123 6,300 780 Climbing Aus ATC (RADAR)
01:00AM -23.5421 150.7076 127° Southeast 103 119 6,900 240 Climbing Aus ATC (RADAR)
01:01AM -23.5748 150.7618 123° Southeast 145 167 7,000  Climbing Aus ATC (RADAR)
01:02AM -23.5968 150.7973 124° Southeast 153 176 6,900 -60 Descending Aus ATC (RADAR)
01:03AM -23.6245 150.8323 131° Southeast 152 175 6,900  Level Aus ATC (RADAR)
01:04AM -23.6427 150.8557 130° Southeast 151 174 6,900  Level Aus ATC (RADAR)
01:05AM -23.6628 150.8828 129° Southeast 152 175 6,900 60 Level Aus ATC (RADAR)
01:06AM -23.6838 150.9138 126° Southeast 150 173 7,000  Climbing Aus ATC (RADAR)
01:07AM -23.7102 150.9538 126° Southeast 149 171 6,900 -60 Descending Aus ATC (RADAR)
01:07AM -23.7246 150.9750 127° Southeast 148 170 6,900  Level Aus ATC (RADAR)
01:08AM -23.7405 150.9995 125° Southeast 148 170 6,900  Level Aus ATC (RADAR)
01:08AM -23.7543 151.0212 125° Southeast 148 170 6,900  Level Aus ATC (RADAR)
01:09AM -23.7768 151.0550 126° Southeast 150 173 6,900  Level Aus ATC (RADAR)
01:10AM -23.8034 151.0968 125° Southeast 154 177 6,900  Level Aus ATC (RADAR)
01:11AM -23.8265 151.1314 126° Southeast 152 175 6,900  Level Aus ATC (RADAR)
01:12AM -23.8449 151.1595 126° Southeast 150 173 6,900  Level Aus ATC (RADAR)
01:13AM -23.8636 151.1876 126° Southeast 151 174 6,900  Level Aus ATC (RADAR)
01:13AM -23.8785 151.2092 127° Southeast 152 175 6,900  Level Aus ATC (RADAR)
01:14AM -23.9065 151.2378 137° Southeast 151 174 6,900  Level Aus ATC (RADAR)
01:15AM -23.9289 151.2512 151° Southeast 158 182 6,900  Level Aus ATC (RADAR)
01:17AM -23.9873 151.2884 150° Southeast 153 176 6,900  Level Aus ATC (RADAR)
01:17AM -24.0185 151.3075 151° Southeast 153 176 6,900  Level Aus ATC (RADAR)
01:18AM -24.0537 151.3280 152° Southeast 154 177 6,900  Level Aus ATC (RADAR)
01:19AM -24.0756 151.3412 151° Southeast 154 177 6,900  Level Aus ATC (RADAR)
01:20AM -24.1086 151.3649 147° Southeast 152 175 6,900  Level Aus ATC (RADAR)
01:21AM -24.1402 151.3842 151° Southeast 156 180 6,900  Level Aus ATC (RADAR)
01:21AM -24.1746 151.4057 150° Southeast 157 181 6,900  Level Aus ATC (RADAR)
01:22AM -24.2000 151.4218 150° Southeast 157 181 6,900  Level Aus ATC (RADAR)
01:23AM -24.2342 151.4447 149° Southeast 156 180 6,900  Level Aus ATC (RADAR)
01:24AM -24.2578 151.4587 152° Southeast 163 188 6,900  Level Aus ATC (RADAR)
01:25AM -24.2925 151.4808 150° Southeast 157 181 6,900  Level Aus ATC (RADAR)
01:25AM -24.3149 151.4950 150° Southeast 160 184 6,900  Level Aus ATC (RADAR)
01:26AM -24.3559 151.5212 150° Southeast 156 180 6,900  Level Aus ATC (RADAR)
01:27AM -24.3912 151.5431 151° Southeast 158 182 6,900  Level Aus ATC (RADAR)
01:28AM -24.4154 151.5614 145° Southeast 159 183 6,900  Level Aus ATC (RADAR)
01:28AM -24.4366 151.5767 147° Southeast 156 180 6,900  Level Aus ATC (RADAR)
01:29AM -24.4670 151.5988 147° Southeast 157 181 6,900  Level Aus ATC (RADAR)
01:30AM -24.5008 151.6228 147° Southeast 157 181 6,900  Level Aus ATC (RADAR)
01:31AM -24.5441 151.6537 147° Southeast 157 181 6,900  Level Aus ATC (RADAR)
01:32AM -24.5753 151.6762 147° Southeast 159 183 6,900 -60 Level Aus ATC (RADAR)
01:33AM -24.6114 151.6983 151° Southeast 162 186 6,800  Descending Aus ATC (RADAR)
01:34AM -24.6335 151.7133 148° Southeast 160 184 6,900 60 Climbing Aus ATC (RADAR)
01:34AM -24.6649 151.7354 147° Southeast 159 183 6,900 -60 Level Aus ATC (RADAR)
01:35AM -24.6952 151.7581 146° Southeast 158 182 6,800  Descending Aus ATC (RADAR)
01:36AM -24.7392 151.7880 148° Southeast 157 181 6,900  Climbing Aus ATC (RADAR)
01:37AM -24.7707 151.8087 149° Southeast 157 181 6,900  Level Aus ATC (RADAR)
01:38AM -24.7981 151.8278 148° Southeast 153 176 6,900 -120 Level Aus ATC (RADAR)
01:39AM -24.8204 151.8423 150° Southeast 158 182 6,800  Descending Aus ATC (RADAR)
01:39AM -24.8518 151.8636 148° Southeast 160 184 6,900 60 Climbing Aus ATC (RADAR)
01:40AM -24.8705 151.8759 149° Southeast 155 178 6,900  Level Aus ATC (RADAR)
01:41AM -24.9087 151.9007 150° Southeast 159 183 6,900  Level Aus ATC (RADAR)
01:42AM -24.9376 151.9190 150° Southeast 158 182 6,900  Level Aus ATC (RADAR)
01:43AM -24.9678 151.9415 146° Southeast 157 181 6,900  Level Aus ATC (RADAR)
01:43AM -24.9889 151.9573 146° Southeast 156 180 6,900  Level Aus ATC (RADAR)
01:44AM -25.0233 151.9808 148° Southeast 157 181 6,900  Level Aus ATC (RADAR)
01:45AM -25.0507 152.0008 146° Southeast 156 180 6,900  Level Aus ATC (RADAR)
01:46AM -25.0952 152.0348 145° Southeast 156 180 6,900  Level Aus ATC (RADAR)
01:47AM -25.1139 152.0479 148° Southeast 159 183 6,900  Level Aus ATC (RADAR)
01:48AM -25.1757 152.0920 147° Southeast 158 182 6,900  Level Aus ATC (RADAR)
01:51AM -25.2934 152.1786 146° Southeast 160 184 6,900  Level Aus ATC (RADAR)
01:52AM -25.3250 152.2014 147° Southeast 161 185 6,900  Level Aus ATC (RADAR)
01:53AM -25.3606 152.2259 148° Southeast 163 188 6,900  Level Aus ATC (RADAR)
01:54AM -25.3832 152.2413 148° Southeast 163 188 6,900  Level Aus ATC (RADAR)
01:55AM -25.4205 152.2698 145° Southeast 163 188 6,900  Level Aus ATC (RADAR)
01:55AM -25.4409 152.2825 151° Southeast 165 190 6,900  Level Aus ATC (RADAR)
01:56AM -25.4879 152.3108 151° Southeast 162 186 6,900  Level Aus ATC (RADAR)
01:57AM -25.5093 152.3274 145° Southeast 162 186 6,900  Level Aus ATC (RADAR)
01:58AM -25.5468 152.3545 147° Southeast 159 183 6,900  Level Aus ATC (RADAR)
01:59AM -25.5703 152.3677 153° Southeast 160 184 6,900  Level Aus ATC (RADAR)
02:00AM -25.6209 152.4008 149° Southeast 157 181 6,900  Level Aus ATC (RADAR)
02:01AM -25.6483 152.4204 147° Southeast 156 180 6,900  Level Aus ATC (RADAR)
02:02AM -25.6820 152.4435 148° Southeast 154 177 6,900 -60 Level Aus ATC (RADAR)
02:02AM -25.7094 152.4621 149° Southeast 153 176 6,800  Descending Aus ATC (RADAR)
02:03AM -25.7401 152.4820 150° Southeast 152 175 6,900  Climbing Aus ATC (RADAR)
02:04AM -25.7747 152.5017 153° Southeast 151 174 6,900  Level Aus ATC (RADAR)
02:05AM -25.7927 152.5135 150° Southeast 150 173 6,900 -240 Level Aus ATC (RADAR)
02:05AM -25.8266 152.5377 147° Southeast 158 182 6,600 -540 Descending Aus ATC (RADAR)
02:06AM -25.8662 152.5642 149° Southeast 164 189 5,900 -660 Descending Aus ATC (RADAR)
02:07AM -25.9019 152.5896 147° Southeast 163 188 5,400 -540 Descending Aus ATC (RADAR)
02:08AM -25.9344 152.6127 147° Southeast 164 189 5,000 -300 Descending Aus ATC (RADAR)
02:09AM -25.9670 152.6374 146° Southeast 152 175 4,900 -120 Descending Aus ATC (RADAR)
02:10AM -25.9872 152.6527 146° Southeast 151 174 4,900  Level Aus ATC (RADAR)
02:11AM -26.0155 152.6750 145° Southeast 148 170 4,900  Level Aus ATC (RADAR)
02:11AM -26.0436 152.6972 145° Southeast 148 170 4,900  Level Aus ATC (RADAR)
02:12AM -26.0806 152.7230 148° Southeast 144 166 4,900  Level Aus ATC (RADAR)
02:14AM -26.1215 152.7560 144° Southeast 143 165 4,900  Level Aus ATC (RADAR)
02:14AM -26.1489 152.7765 146° Southeast 141 162 4,900  Level Aus ATC (RADAR)
02:15AM -26.1753 152.7999 141° Southeast 144 166 4,900  Level Aus ATC (RADAR)
02:16AM -26.1948 152.8135 148° Southeast 141 162 4,900  Level Aus ATC (RADAR)
02:17AM -26.2221 152.8365 143° Southeast 147 169 4,900  Level Aus ATC (RADAR)
02:18AM -26.2566 152.8584 150° Southeast 143 165 4,900  Level Aus ATC (RADAR)
02:19AM -26.2845 152.8791 146° Southeast 143 165 4,900  Level Aus ATC (RADAR)
02:19AM -26.3041 152.8926 148° Southeast 141 162 4,900  Level Aus ATC (RADAR)
02:20AM -26.3355 152.9132 150° Southeast 141 162 4,900  Level Aus ATC (RADAR)
02:21AM -26.3629 152.9352 144° Southeast 144 166 5,000  Climbing Aus ATC (RADAR)
02:22AM -26.3915 152.9545 149° Southeast 143 165 4,900 -120 Descending Aus ATC (RADAR)
02:22AM -26.4140 152.9709 147° Southeast 144 166 4,900  Level Aus ATC (RADAR)
02:23AM -26.4373 152.9854 151° Southeast 143 165 4,900  Level Aus ATC (RADAR)
02:24AM -26.4663 153.0047 149° Southeast 144 166 4,900  Level Aus ATC (RADAR)
02:25AM -26.4978 153.0267 148° Southeast 145 167 4,900  Level Aus ATC (RADAR)
02:25AM -26.5180 153.0399 150° Southeast 144 166 4,900  Level Aus ATC (RADAR)
02:26AM -26.5433 153.0572 149° Southeast 141 162 4,900  Level Aus ATC (RADAR)
02:27AM -26.5744 153.0770 150° Southeast 139 160 4,900  Level Aus ATC (RADAR)
02:28AM -26.6053 153.0817 172° South 124 143 5,000  Climbing Aus ATC (RADAR)
02:29AM -26.6334 153.0572 218° Southwest 147 169 4,900 -60 Descending Aus ATC (RADAR)
02:30AM -26.6653 153.0370 210° Southwest 144 166 4,900  Level Aus ATC (RADAR)
02:30AM -26.6865 153.0237 209° Southwest 148 170 4,900  Level Aus ATC (RADAR)
02:31AM -26.7152 153.0061 209° Southwest 141 162 4,900 120 Level Aus ATC (RADAR)
02:32AM -26.7446 152.9885 208° Southwest 142 163 5,100  Climbing Aus ATC (RADAR)
02:33AM -26.7802 152.9662 209° Southwest 144 166 4,900 -120 Descending Aus ATC (RADAR)
02:34AM -26.8234 152.9403 208° Southwest 141 162 4,900  Level Aus ATC (RADAR)
02:35AM -26.8529 152.9227 208° Southwest 144 166 4,900  Level Aus ATC (RADAR)
02:36AM -26.8833 152.9048 208° Southwest 148 170 4,900  Level Aus ATC (RADAR)
02:37AM -26.9138 152.8875 207° Southwest 147 169 4,900  Level Aus ATC (RADAR)
02:38AM -26.9468 152.8830 187° South 153 176 5,000  Climbing Aus ATC (RADAR)
02:38AM -26.9727 152.8921 163° South 147 169 4,900 -120 Descending Aus ATC (RADAR)
02:39AM -27.0029 152.8982 170° South 146 168 4,900  Level Aus ATC (RADAR)
02:40AM -27.0396 152.9062 169° South 145 167 4,900  Level Aus ATC (RADAR)
02:41AM -27.0732 152.9136 169° South 148 170 4,900 -180 Level Aus ATC (RADAR)
02:41AM -27.0973 152.9178 171° South 150 173 4,700 -540 Descending Aus ATC (RADAR)
02:42AM -27.1316 152.9216 174° South 148 170 4,200 -600 Descending Aus ATC (RADAR)
02:43AM -27.1633 152.9228 178° South 151 174 3,800 -720 Descending Aus ATC (RADAR)
02:44AM -27.2293 152.9226 180° South 151 174 2,600 -480 Descending Aus ATC (RADAR)
02:48AM -27.3812 152.9257 179° South 149 171 1,500 -240 Descending Aus ATC (RADAR)
02:49AM -27.4340 152.9268 179° South 132 152 1,500  Level Aus ATC (RADAR)
02:50AM -27.4559 152.9266 181° South 135 155 1,500  Level Aus ATC (RADAR)
02:51AM -27.4841 152.9351 165° South 126 145 1,500  Level Aus ATC (RADAR)
02:52AM -27.5053 152.9407 167° South 116 133 1,500 -180 Level Aus ATC (RADAR)
02:52AM -27.5313 152.9494 163° South 101 116 1,300 -360 Descending Aus ATC (RADAR)
02:53AM -27.5434 152.9541 161° South 93 107 1,000 -480 Descending Aus ATC (RADAR)
02:54AM -27.5648 152.9755 138° Southeast 88 101 500 -420 Descending Aus ATC (RADAR)